Time;durP1;ratioP1;P1;durP2;ratioP2;P2;SDS_P1;SDS_P2;PMS_P1;PMS_P2;Temp;Humidity;BMP_temperature;BMP_pressure;BME280_temperature;BME280_humidity;BME280_pressure;Samples;Min_cycle;Max_cycle;Signal;HPM_P1;HPM_P2
2023/03/29 00:01:35;;;;;;;5.22;2.33;;;2.00;99.90;;;0.34;73.29;101651.78;4958499;28;20060;-79
2023/03/29 00:04:06;;;;;;;5.53;2.10;;;2.00;99.90;;;0.39;73.36;101646.66;4945187;28;20129;-79
2023/03/29 00:06:32;;;;;;;5.55;2.30;;;2.00;99.90;;;0.43;73.17;101643.22;4956235;28;20391;-79
2023/03/29 00:09:00;;;;;;;7.97;2.20;;;2.10;99.90;;;0.45;73.29;101641.50;4979936;28;20134;-78
2023/03/29 00:11:27;;;;;;;3.88;2.38;;;2.10;99.90;;;0.47;73.17;101637.22;4976957;28;20038;-78
2023/03/29 00:13:55;;;;;;;4.72;2.05;;;2.10;99.90;;;0.52;73.50;101642.44;4943866;28;20046;-80
2023/03/29 00:16:21;;;;;;;6.43;2.60;;;2.10;99.90;;;0.55;73.61;101637.31;4944541;28;20085;-80
2023/03/29 00:18:47;;;;;;;4.65;2.53;;;2.10;99.90;;;0.58;73.61;101633.03;4966969;28;20560;-78
2023/03/29 00:21:13;;;;;;;5.25;2.33;;;2.10;99.90;;;0.54;74.20;101635.56;4961683;28;20030;-79
2023/03/29 00:23:39;;;;;;;7.60;2.65;;;2.10;99.90;;;0.46;74.84;101627.72;4958949;28;20041;-78
2023/03/29 00:26:06;;;;;;;115.88;36.05;;;2.10;99.90;;;0.47;75.01;101615.63;4962559;28;20117;-79
2023/03/29 00:28:32;;;;;;;146.07;48.67;;;2.10;99.90;;;0.46;75.34;101619.94;5002242;28;20041;-79
2023/03/29 00:31:09;;;;;;;217.90;71.90;;;2.10;99.90;;;0.39;76.13;101612.97;4980354;28;20035;-79
2023/03/29 00:33:36;;;;;;;13.68;4.00;;;2.00;99.90;;;0.29;76.23;101608.56;4929497;28;20043;-79
2023/03/29 00:36:03;;;;;;;28.35;9.55;;;1.90;99.90;;;0.22;77.18;101596.38;4968790;28;20124;-79
2023/03/29 00:38:31;;;;;;;342.17;110.97;;;1.90;99.90;;;0.18;76.77;101600.69;4958006;28;20031;-79
2023/03/29 00:40:57;;;;;;;231.00;68.55;;;1.80;99.90;;;0.12;77.21;101596.28;4968413;28;20030;-77
2023/03/29 00:43:23;;;;;;;150.07;44.50;;;1.70;99.90;;;-0.05;77.46;101592.66;4924781;28;20061;-78
2023/03/29 00:45:50;;;;;;;20.92;10.05;;;1.70;99.90;;;-0.06;77.75;101581.44;4974637;28;20065;-78
2023/03/29 00:48:23;;;;;;;17.60;7.55;;;1.70;99.90;;;-0.07;77.92;101584.88;4974328;28;20521;-79
2023/03/29 00:50:58;;;;;;;11.93;6.55;;;1.60;99.90;;;-0.12;78.41;101571.00;4969560;28;20045;-79
2023/03/29 00:53:37;;;;;;;13.23;5.90;;;1.60;99.90;;;-0.18;78.79;101576.13;4941940;28;20113;-80
2023/03/29 00:56:17;;;;;;;6.22;2.75;;;1.60;99.90;;;-0.17;78.97;101569.22;4939122;28;20039;-79
2023/03/29 00:58:59;;;;;;;8.38;4.40;;;1.50;99.90;;;-0.28;79.13;101564.81;4952500;28;20034;-79
2023/03/29 01:01:43;;;;;;;9.23;4.63;;;1.40;99.90;;;-0.27;79.23;101560.50;4929247;28;1212084;-78
2023/03/29 01:04:28;;;;;;;11.80;4.35;;;1.40;99.90;;;-0.27;79.92;101560.50;4981564;28;20041;-78
2023/03/29 01:07:57;;;;;;;8.23;3.35;;;1.40;99.90;;;-0.22;80.09;101558.81;4974288;28;20022;-79
2023/03/29 01:10:40;;;;;;;11.18;3.40;;;1.50;99.90;;;-0.22;80.08;101551.94;4915600;29;20043;-78
2023/03/29 01:13:15;;;;;;;10.38;3.10;;;1.50;99.90;;;-0.28;80.15;101554.47;4950512;28;20575;-79
2023/03/29 01:15:44;;;;;;;3.45;2.20;;;1.50;99.90;;;-0.25;80.27;101548.44;4941384;28;20076;-78
2023/03/29 01:18:10;;;;;;;12.88;3.35;;;1.40;99.90;;;-0.24;80.86;101545.88;4984812;28;20039;-78
2023/03/29 01:21:03;;;;;;;5.07;2.25;;;1.50;99.90;;;-0.13;81.17;101539.91;4933261;28;20037;-77
2023/03/29 01:24:08;;;;;;;5.03;2.20;;;2.50;99.90;;;-0.12;80.78;101533.91;4994712;28;20054;-78
2023/03/29 01:26:54;;;;;;;9.27;2.42;;;1.50;99.90;;;-0.06;80.94;101532.25;4966701;28;20066;-78
2023/03/29 01:29:33;;;;;;;6.65;2.80;;;1.60;99.90;;;-0.03;80.86;101521.91;4964675;28;20039;-78
2023/03/29 01:32:26;;;;;;;7.68;2.47;;;1.60;99.90;;;0.01;80.61;101517.63;4920623;28;20496;-78
2023/03/29 01:35:09;;;;;;;12.05;2.80;;;1.70;99.90;;;0.04;80.76;101517.66;4970497;28;20917;-79
2023/03/29 01:37:55;;;;;;;6.68;3.00;;;1.60;99.90;;;0.04;80.78;101504.72;4952495;28;20462;-79
2023/03/29 01:40:22;;;;;;;11.30;2.50;;;1.70;99.90;;;0.02;81.07;101511.59;4951872;28;20035;-79
2023/03/29 01:43:10;;;;;;;5.60;2.70;;;1.70;99.90;;;0.09;81.25;101509.97;4927880;28;20070;-78
2023/03/29 01:46:00;;;;;;;12.88;2.42;;;1.70;99.90;;;0.13;80.96;101503.91;4962363;28;20758;-79
2023/03/29 01:49:00;;;;;;;7.68;3.40;;;1.70;99.90;;;0.15;81.20;101497.03;4957641;28;20509;-79
2023/03/29 01:51:52;;;;;;;8.80;3.10;;;1.70;99.90;;;0.20;80.96;101501.41;4975693;28;20220;-78
2023/03/29 01:54:44;;;;;;;8.85;2.45;;;1.80;99.90;;;0.21;80.72;101491.91;4962186;28;20084;-78
2023/03/29 01:57:13;;;;;;;4.70;2.40;;;1.80;99.90;;;0.23;80.87;101486.75;4913340;28;20406;-78
2023/03/29 01:59:43;;;;;;;9.15;3.33;;;1.80;99.90;;;0.19;81.27;101486.75;4945780;28;20054;-78
2023/03/29 02:02:17;;;;;;;7.20;3.20;;;1.80;99.90;;;0.22;81.47;101483.31;4943083;28;20046;-78
2023/03/29 02:04:50;;;;;;;8.90;2.88;;;1.80;99.90;;;0.18;82.30;101481.53;4971697;28;20041;-79
2023/03/29 02:07:24;;;;;;;9.30;3.35;;;1.80;99.90;;;0.10;82.99;101478.00;4936924;28;20044;-79
2023/03/29 02:09:52;;;;;;;9.00;2.70;;;1.80;99.90;;;0.14;82.74;101477.19;4929977;28;20510;-77
2023/03/29 02:12:21;;;;;;;5.00;2.25;;;1.80;99.90;;;0.13;82.94;101470.25;4956577;28;20126;-78
2023/03/29 02:14:46;;;;;;;12.30;2.85;;;1.80;99.90;;;0.09;83.66;101461.63;4951554;28;20040;-78
2023/03/29 02:17:26;;;;;;;9.23;2.83;;;1.70;99.90;;;0.12;83.50;101461.63;4952820;28;20109;-79
2023/03/29 02:20:22;;;;;;;7.22;2.40;;;1.70;99.90;;;0.10;83.98;101462.47;4903933;28;20042;-79
2023/03/29 02:23:07;;;;;;;8.77;2.22;;;1.70;99.90;;;0.12;84.37;101453.84;4975791;28;20035;-77
2023/03/29 02:25:34;;;;;;;11.70;2.80;;;1.70;99.90;;;0.11;84.53;101454.72;4991014;28;20050;-79
2023/03/29 02:28:00;;;;;;;10.27;2.50;;;1.70;99.90;;;0.04;85.08;101449.47;4963126;28;20117;-78
2023/03/29 02:30:47;;;;;;;12.65;2.80;;;;;;;0.04;85.85;101450.31;4955889;28;20055;-79
2023/03/29 02:33:18;;;;;;;;;;;1.70;99.90;;;0.08;85.79;101441.72;4979680;28;20050;-79
2023/03/29 02:36:03;;;;;;;6.18;2.33;;;1.70;99.90;;;0.12;86.32;101445.22;4962692;28;19924;-79
2023/03/29 02:38:33;;;;;;;6.13;2.53;;;1.80;99.90;;;0.17;86.66;101434.06;4957515;28;20069;-78
2023/03/29 02:41:00;;;;;;;7.10;2.30;;;1.80;99.90;;;0.15;86.91;101427.09;4928226;28;20569;-78
2023/03/29 02:43:28;;;;;;;7.30;2.30;;;1.90;99.90;;;0.26;87.43;101429.78;4930451;28;20073;-79
2023/03/29 02:46:04;;;;;;;9.65;2.30;;;1.90;99.90;;;0.29;86.74;101430.69;4970133;28;20042;-78
2023/03/29 02:48:31;;;;;;;;;;;1.90;99.90;;;0.32;87.03;101424.63;4951146;28;20038;-78
2023/03/29 02:51:07;;;;;;;12.90;2.72;;;1.90;99.90;;;0.28;87.40;101418.59;4947567;28;20428;-79
2023/03/29 02:53:43;;;;;;;11.27;3.05;;;1.90;99.90;;;0.39;87.40;101429.03;4959234;28;20073;-79
2023/03/29 02:56:09;;;;;;;13.55;3.30;;;2.00;99.90;;;0.42;87.06;101418.66;4962549;28;20047;-78
2023/03/29 02:58:35;;;;;;;9.75;2.13;;;2.10;99.90;;;0.50;86.16;101426.50;4960839;28;20142;-79
2023/03/29 03:01:05;;;;;;;9.30;2.50;;;2.10;99.90;;;0.56;86.26;101416.16;4950595;28;20041;-79
2023/03/29 03:03:36;;;;;;;9.50;2.20;;;2.20;99.90;;;0.64;85.93;101421.38;4957263;28;20034;-79
2023/03/29 03:06:01;;;;;;;9.70;1.88;;;2.20;99.90;;;0.67;86.05;101413.63;4965440;28;20033;-79
2023/03/29 03:08:28;;;;;;;6.30;2.10;;;2.30;99.90;;;0.66;85.75;101399.78;4926547;28;20122;-78
2023/03/29 03:10:53;;;;;;;8.98;2.13;;;2.20;99.90;;;0.59;86.42;101401.50;4936390;28;20060;-79
2023/03/29 03:13:19;;;;;;;5.40;2.03;;;2.30;99.90;;;0.64;86.54;101398.91;4974610;28;20418;-79
2023/03/29 03:15:50;;;;;;;11.15;2.50;;;2.30;99.90;;;0.66;86.96;101396.34;4932975;28;20042;-80
2023/03/29 03:18:17;;;;;;;11.98;2.30;;;2.30;99.90;;;0.68;86.92;101394.63;4959789;28;20052;-79
2023/03/29 03:20:45;;;;;;;8.05;2.17;;;2.30;99.90;;;0.70;87.21;101390.31;4964239;28;20095;-80
2023/03/29 03:23:11;;;;;;;9.30;2.17;;;2.30;99.90;;;0.78;87.18;101386.91;4976089;28;20038;-79
2023/03/29 03:25:37;;;;;;;9.80;2.30;;;2.40;99.90;;;0.72;87.42;101381.69;4943854;28;20516;-79
2023/03/29 03:28:06;;;;;;;8.00;2.20;;;2.40;99.90;;;0.75;87.27;101383.41;4946768;28;20177;-79
2023/03/29 03:30:33;;;;;;;11.05;2.17;;;2.40;99.90;;;0.85;86.80;101372.22;4940576;28;20042;-79
2023/03/29 03:32:59;;;;;;;8.27;2.15;;;2.40;99.90;;;0.85;86.76;101377.41;4950754;28;20037;-78
2023/03/29 03:35:25;;;;;;;16.33;2.50;;;2.50;99.90;;;0.90;86.82;101367.06;4964820;28;20053;-79
2023/03/29 03:37:51;;;;;;;7.60;2.30;;;2.50;99.90;;;0.97;86.74;101371.41;4940607;28;20034;-78
2023/03/29 03:40:21;;;;;;;8.35;1.90;;;2.50;99.90;;;0.96;86.82;101370.53;4960129;28;20121;-79
2023/03/29 03:42:47;;;;;;;9.15;2.10;;;2.50;99.90;;;0.98;86.80;101368.81;4942391;28;20035;-78
2023/03/29 03:45:14;;;;;;;8.98;2.22;;;2.60;99.90;;;1.00;87.02;101364.50;4970629;28;20870;-79
2023/03/29 03:47:40;;;;;;;14.85;2.10;;;2.60;99.90;;;0.99;87.01;101367.97;4964612;28;20042;-79
2023/03/29 03:50:07;;;;;;;7.03;2.05;;;2.60;99.90;;;1.01;86.87;101362.75;4959593;28;20057;-79
2023/03/29 03:52:40;;;;;;;10.70;2.60;;;2.70;99.90;;;1.05;86.79;101359.31;4975071;28;20038;-80
2023/03/29 03:55:08;;;;;;;17.15;2.95;;;2.70;99.90;;;1.08;86.77;101361.06;4929323;28;20038;-79
2023/03/29 03:57:37;;;;;;;8.48;2.22;;;2.70;99.90;;;1.10;86.79;101362.81;4937432;28;20056;-79
2023/03/29 04:00:19;;;;;;;14.15;2.15;;;2.70;99.90;;;1.15;86.66;101361.09;4953436;28;20042;-80
2023/03/29 04:02:47;;;;;;;7.68;2.50;;;2.80;99.90;;;1.14;86.58;101353.28;4939859;28;20118;-79
2023/03/29 04:05:14;;;;;;;7.93;2.05;;;2.80;99.90;;;1.17;86.38;101354.19;4943227;28;20442;-79
2023/03/29 04:07:40;;;;;;;16.20;2.65;;;2.80;99.90;;;1.19;86.66;101347.25;4945251;28;20034;-79
2023/03/29 04:10:08;;;;;;;8.75;2.17;;;2.80;99.90;;;1.20;86.78;101348.97;4953206;28;20038;-80
2023/03/29 04:12:39;;;;;;;9.60;1.95;;;2.80;99.90;;;1.19;86.45;101349.84;4964859;28;20069;-79
2023/03/29 04:15:07;;;;;;;11.23;2.10;;;2.80;99.90;;;1.18;86.72;101345.50;4945994;28;20125;-79
2023/03/29 04:17:33;;;;;;;14.60;2.03;;;2.90;99.90;;;1.21;87.10;101347.28;4951169;28;20093;-79
2023/03/29 04:20:01;;;;;;;13.60;1.98;;;2.90;99.90;;;1.21;86.80;101342.09;4962863;28;20050;-79
2023/03/29 04:22:30;;;;;;;5.90;2.10;;;2.90;99.90;;;1.23;87.34;101337.75;4941361;28;20045;-79
2023/03/29 04:24:55;;;;;;;11.20;1.80;;;2.90;99.90;;;1.27;86.83;101333.44;4931141;28;20027;-79
2023/03/29 04:27:21;;;;;;;15.25;2.55;;;2.90;99.90;;;1.26;87.05;101332.56;4941272;28;20508;-79
2023/03/29 04:29:47;;;;;;;10.27;2.35;;;2.90;99.90;;;1.27;87.30;101341.22;4949471;28;20045;-78
2023/03/29 04:32:13;;;;;;;14.25;2.50;;;2.90;99.90;;;1.29;86.81;101327.38;4946744;28;20040;-81
2023/03/29 04:34:39;;;;;;;10.73;2.30;;;2.90;99.90;;;1.31;87.03;101328.25;4929708;28;20130;-78
2023/03/29 04:37:10;;;;;;;16.10;2.50;;;2.90;99.90;;;1.35;86.90;101323.94;4960464;28;20734;-79
2023/03/29 04:39:36;;;;;;;12.82;2.30;;;3.00;99.90;;;1.36;86.97;101325.66;4972191;28;20042;-78
2023/03/29 04:42:04;;;;;;;11.00;1.80;;;3.00;99.90;;;1.41;87.18;101323.94;4948683;28;20490;-79
2023/03/29 04:44:32;;;;;;;9.38;2.25;;;3.00;99.90;;;1.42;87.02;101323.06;4961192;28;20141;-79
2023/03/29 04:47:03;;;;;;;13.98;2.42;;;3.00;99.90;;;1.47;87.10;101313.56;4913464;28;20037;-79
2023/03/29 04:49:29;;;;;;;13.45;2.85;;;3.10;99.90;;;1.48;86.75;101311.84;4934758;28;20380;-79
2023/03/29 04:51:55;;;;;;;17.05;2.65;;;3.10;99.90;;;1.55;86.78;101316.16;4959960;28;20044;-78
2023/03/29 04:54:21;;;;;;;22.95;2.70;;;3.10;99.90;;;1.58;86.41;101314.44;4956623;28;20061;-79
2023/03/29 04:56:47;;;;;;;17.15;2.80;;;3.20;99.90;;;1.60;86.38;101307.50;4934690;28;20042;-78
2023/03/29 04:59:18;;;;;;;13.10;2.60;;;3.20;99.90;;;1.67;86.27;101310.97;4941726;28;20031;-79
2023/03/29 05:01:44;;;;;;;9.85;2.63;;;3.20;99.90;;;1.69;86.38;101317.03;4914903;28;20044;-79
2023/03/29 05:04:10;;;;;;;17.38;2.63;;;3.20;99.90;;;1.78;85.80;101319.59;4958842;28;20481;-78
2023/03/29 05:06:37;;;;;;;16.40;2.58;;;3.30;99.90;;;1.83;85.11;101310.06;4986470;28;20041;-79
2023/03/29 05:09:03;;;;;;;18.85;3.10;;;3.30;99.90;;;1.88;84.78;101315.28;4963778;28;20041;-79
2023/03/29 05:11:32;;;;;;;7.18;2.60;;;3.40;99.90;;;1.94;84.39;101319.56;4965903;28;20047;-78
2023/03/29 05:14:02;;;;;;;18.05;3.25;;;3.40;99.90;;;1.95;84.49;101314.38;4951707;28;20041;-79
2023/03/29 05:16:31;;;;;;;20.60;3.13;;;3.40;99.90;;;1.97;84.61;101315.25;4956699;28;20138;-78
2023/03/29 05:18:57;;;;;;;16.52;2.97;;;3.40;99.90;;;1.98;84.80;101319.56;4942408;28;20117;-79
2023/03/29 05:21:27;;;;;;;19.75;3.20;;;3.50;99.90;;;2.03;84.47;101315.25;4933885;28;21195;-79
2023/03/29 05:23:53;;;;;;;15.18;3.22;;;3.40;99.90;;;2.05;84.48;101310.03;4952475;28;20418;-79
2023/03/29 05:26:22;;;;;;;14.90;2.90;;;3.50;99.90;;;2.08;83.82;101310.03;4980877;28;20062;-78
2023/03/29 05:28:51;;;;;;;12.50;3.05;;;3.50;99.90;;;2.09;84.18;101306.56;4961102;28;20128;-78
2023/03/29 05:31:20;;;;;;;11.52;2.67;;;3.50;99.90;;;2.02;83.98;101297.91;4915981;28;20043;-78
2023/03/29 05:33:50;;;;;;;12.25;2.55;;;3.50;99.90;;;1.97;84.51;101306.59;4957186;28;20029;-79
2023/03/29 05:36:24;;;;;;;11.70;2.60;;;3.50;99.90;;;2.13;84.15;101297.88;4950629;28;20062;-78
2023/03/29 05:38:50;;;;;;;15.35;3.05;;;3.60;99.90;;;2.21;83.84;101293.53;4956489;28;20129;-78
2023/03/29 05:41:16;;;;;;;11.93;3.17;;;3.60;99.90;;;2.33;83.57;101292.63;4968215;28;20085;-78
2023/03/29 05:43:43;;;;;;;11.90;2.85;;;3.70;99.90;;;2.44;83.59;101287.38;4974779;23;20037;-77
2023/03/29 05:46:11;;;;;;;10.80;3.42;;;3.80;99.90;;;2.57;83.17;101294.28;4975863;28;20038;-77
2023/03/29 05:48:39;;;;;;;13.75;3.30;;;3.90;99.90;;;2.72;82.56;101289.88;4983620;28;20030;-76
2023/03/29 05:51:05;;;;;;;16.92;3.45;;;4.00;99.90;;;2.94;82.38;101294.09;4968426;28;20065;-76
2023/03/29 05:53:32;;;;;;;12.40;2.90;;;4.20;99.90;;;3.07;81.67;101293.13;4975531;28;20048;-75
2023/03/29 05:55:58;;;;;;;10.57;3.00;;;4.30;99.90;;;3.16;81.15;101284.41;5000612;28;20037;-75
2023/03/29 05:58:27;;;;;;;9.77;3.10;;;4.40;99.90;;;3.25;81.19;101289.53;4979216;28;20041;-76
2023/03/29 06:00:53;;;;;;;16.83;3.15;;;4.50;99.90;;;3.29;80.56;101280.81;4965322;28;21295;-76
2023/03/29 06:03:26;;;;;;;16.23;2.97;;;4.60;99.90;;;3.33;80.66;101283.44;4991103;28;20025;-76
2023/03/29 06:06:02;;;;;;;11.00;2.95;;;4.60;99.90;;;3.36;80.60;101279.03;5001146;28;20033;-75
2023/03/29 06:08:30;;;;;;;9.98;2.83;;;4.70;99.90;;;3.34;80.45;101288.59;4945759;28;20034;-75
2023/03/29 06:11:04;;;;;;;14.77;3.13;;;4.70;99.90;;;3.37;80.57;101283.38;4962887;28;20136;-76
2023/03/29 06:13:36;;;;;;;12.35;3.03;;;4.70;99.90;;;3.38;80.44;101274.69;5000075;28;20112;-76
2023/03/29 06:16:03;;;;;;;17.45;3.45;;;4.80;99.90;;;3.44;80.50;101277.25;5003571;28;20037;-76
2023/03/29 06:18:29;;;;;;;12.55;2.83;;;4.80;99.90;;;3.51;80.55;101277.19;4957583;28;20071;-76
2023/03/29 06:20:55;;;;;;;10.25;2.88;;;4.80;99.90;;;3.59;80.35;101275.38;4973748;28;20047;-77
2023/03/29 06:23:22;;;;;;;22.38;3.17;;;5.00;99.90;;;3.65;79.77;101270.09;4983625;28;20113;-76
2023/03/29 06:25:50;;;;;;;11.55;3.15;;;4.90;99.90;;;3.68;79.24;101268.34;4965674;28;20053;-77
2023/03/29 06:28:18;;;;;;;15.88;2.85;;;5.10;99.90;;;3.74;79.04;101275.25;4976313;28;20140;-77
2023/03/29 06:30:47;;;;;;;18.77;3.03;;;5.10;99.90;;;3.82;78.91;101278.66;4963513;28;20045;-78
2023/03/29 06:33:13;;;;;;;13.70;3.03;;;5.10;99.90;;;3.80;78.30;101276.91;5006524;28;20033;-77
2023/03/29 06:35:42;;;;;;;12.30;2.67;;;5.20;99.90;;;3.89;78.11;101269.88;4983717;28;20056;-77
2023/03/29 06:38:10;;;;;;;12.30;2.80;;;5.20;99.90;;;3.93;77.83;101275.94;4969245;28;20030;-75
2023/03/29 06:40:39;;;;;;;15.80;3.35;;;5.30;99.90;;;3.97;77.17;101271.53;4983351;28;20026;-76
2023/03/29 06:43:05;;;;;;;16.52;3.22;;;5.30;99.90;;;4.01;77.08;101270.63;4973007;28;20124;-77
2023/03/29 06:45:35;;;;;;;16.92;3.17;;;5.40;99.90;;;4.06;76.94;101268.81;4961231;28;20060;-77
2023/03/29 06:48:06;;;;;;;15.15;3.10;;;5.40;99.90;;;4.12;76.49;101263.53;4982912;28;20037;-78
2023/03/29 06:50:33;;;;;;;12.55;3.05;;;5.40;99.90;;;4.16;75.93;101267.84;4980234;28;20041;-78
2023/03/29 06:53:00;;;;;;;13.25;3.10;;;5.50;99.90;;;4.23;75.79;101258.19;4994272;28;20037;-78
2023/03/29 06:55:26;;;;;;;11.38;2.60;;;5.50;99.90;;;4.25;75.37;101259.91;4974415;28;20057;-78
2023/03/29 06:58:03;;;;;;;13.32;3.08;;;5.60;99.90;;;4.30;74.83;101255.53;4930008;28;20705;-78
2023/03/29 07:00:29;;;;;;;16.02;3.25;;;5.60;99.90;;;4.39;74.88;101261.50;4936864;28;20041;-78
2023/03/29 07:03:04;;;;;;;11.30;3.00;;;5.70;99.90;;;4.48;74.49;101262.25;4910559;28;20036;-79
2023/03/29 07:05:31;;;;;;;11.88;2.95;;;5.80;99.90;;;4.60;73.97;101262.94;4971280;28;20038;-79
2023/03/29 07:08:10;;;;;;;13.82;3.25;;;5.80;99.90;;;4.62;74.19;101259.47;4952090;28;20495;-79
2023/03/29 07:10:40;;;;;;;17.33;3.50;;;5.90;99.90;;;4.65;73.87;101269.00;4958460;28;20632;-79
2023/03/29 07:13:07;;;;;;;16.05;3.53;;;5.90;99.90;;;4.72;73.74;101265.41;4961942;28;20041;-79
2023/03/29 07:15:36;;;;;;;14.95;2.95;;;6.00;99.90;;;4.80;73.18;101260.09;4914069;28;20113;-79
2023/03/29 07:18:05;;;;;;;15.90;3.50;;;6.10;99.90;;;4.90;72.79;101261.66;4896749;28;20042;-78
2023/03/29 07:20:32;;;;;;;14.60;3.30;;;6.20;99.90;;;4.97;72.50;101252.88;4950505;28;20068;-78
2023/03/29 07:23:08;;;;;;;22.67;3.50;;;6.30;99.90;;;5.12;72.54;101257.88;4957758;28;20608;-79
2023/03/29 07:25:35;;;;;;;18.27;3.72;;;6.30;99.90;;;5.30;72.12;101264.53;5004496;28;20509;-79
2023/03/29 07:28:10;;;;;;;15.13;3.28;;;6.50;99.90;;;5.39;71.19;101258.28;4944484;28;20037;-79
2023/03/29 07:30:36;;;;;;;11.25;3.08;;;6.60;99.90;;;5.55;70.73;101258.91;4966467;28;20115;-80
2023/03/29 07:33:03;;;;;;;9.80;3.20;;;6.80;99.90;;;5.59;70.49;101254.47;5026745;28;20044;-80
2023/03/29 07:35:33;;;;;;;12.45;3.45;;;6.80;99.90;;;5.71;70.01;101260.34;4990837;28;20406;-79
2023/03/29 07:37:59;;;;;;;10.93;3.40;;;6.90;99.90;;;5.71;69.60;101252.50;4950001;28;20086;-79
2023/03/29 07:40:26;;;;;;;13.68;3.35;;;7.00;99.90;;;5.76;69.22;101253.28;4970633;28;20878;-81
2023/03/29 07:42:54;;;;;;;15.55;3.20;;;7.00;99.90;;;5.84;69.47;101266.22;5019108;28;20038;-81
2023/03/29 07:45:25;;;;;;;16.10;4.28;;;7.00;99.90;;;5.81;68.60;101260.19;4966364;28;20547;-80
2023/03/29 07:47:58;;;;;;;15.68;3.80;;;7.10;99.90;;;5.91;68.48;101259.13;4963001;28;20055;-79
2023/03/29 07:50:30;;;;;;;22.27;3.25;;;7.10;99.90;;;6.00;68.39;101250.28;4935165;28;20109;-81
2023/03/29 07:52:56;;;;;;;10.55;3.60;;;7.20;99.90;;;6.15;68.97;101253.47;4945740;28;20049;-79
2023/03/29 07:55:22;;;;;;;14.32;4.22;;;7.30;99.90;;;6.27;68.56;101254.97;4961423;28;20042;-80
2023/03/29 07:57:49;;;;;;;12.45;3.45;;;7.40;99.90;;;6.33;67.99;101254.84;5010768;28;20042;-79
2023/03/29 08:00:15;;;;;;;14.93;3.60;;;7.50;99.90;;;6.44;68.33;101248.53;4933803;28;20104;-81
2023/03/29 08:02:46;;;;;;;15.85;3.55;;;7.60;99.90;;;6.46;67.59;101252.84;4998749;28;20065;-79
2023/03/29 08:05:14;;;;;;;16.92;3.50;;;7.70;99.90;;;6.53;67.58;101254.44;4935589;28;20041;-81
2023/03/29 08:07:42;;;;;;;9.73;3.00;;;7.80;99.90;;;6.71;67.66;101261.00;4984090;28;20045;-79
2023/03/29 08:10:15;;;;;;;15.88;3.65;;;7.80;99.90;;;6.75;66.78;101256.56;4993296;28;20051;-80
2023/03/29 08:12:44;;;;;;;17.40;3.13;;;7.90;99.90;;;6.81;66.45;101263.44;5002829;28;20029;-79
2023/03/29 08:15:12;;;;;;;10.38;2.92;;;8.00;99.90;;;6.81;66.38;101258.22;4953414;28;20057;-79
2023/03/29 08:17:44;;;;;;;12.95;3.30;;;8.00;99.90;;;6.96;66.93;101258.72;4972530;28;20084;-79
2023/03/29 08:20:16;;;;;;;14.50;2.97;;;8.10;99.90;;;6.97;66.28;101254.31;4975805;28;20080;-78
2023/03/29 08:22:47;;;;;;;19.83;3.47;;;8.10;99.90;;;6.94;65.79;101247.41;4953799;28;20106;-79
2023/03/29 08:25:18;;;;;;;14.98;3.45;;;8.20;99.90;;;7.00;65.75;101254.28;4964627;28;20032;-79
2023/03/29 08:27:47;;;;;;;10.95;3.10;;;8.20;99.90;;;7.05;65.69;101249.78;4985617;28;20409;-79
2023/03/29 08:30:16;;;;;;;18.17;3.80;;;8.20;99.90;;;7.11;65.89;101254.88;4984473;28;20049;-79
2023/03/29 08:32:43;;;;;;;10.85;3.45;;;8.30;99.90;;;7.24;65.65;101247.59;4968026;28;20030;-79
2023/03/29 08:35:12;;;;;;;14.60;3.50;;;8.40;99.90;;;7.39;65.25;101246.34;4977183;28;20096;-79
2023/03/29 08:37:38;;;;;;;21.67;3.30;;;8.50;99.90;;;7.63;64.84;101246.63;4955430;28;20128;-78
2023/03/29 08:40:23;;;;;;;16.27;3.50;;;8.70;99.90;;;7.81;64.47;101251.38;4981907;28;20024;-79
2023/03/29 08:42:49;;;;;;;14.05;3.47;;;8.40;99.90;;;7.90;64.38;101245.88;4943970;28;20075;-78
2023/03/29 08:45:48;;;;;;;17.25;3.72;;;9.00;99.90;;;7.93;63.75;101237.06;5003022;28;20537;-80
2023/03/29 08:48:52;;;;;;;18.05;4.30;;;9.10;99.90;;;8.09;62.60;101240.97;4968352;28;20038;-79
2023/03/29 08:51:41;;;;;;;16.02;3.78;;;9.20;99.90;;;8.12;62.50;101237.41;4928942;28;20038;-79
2023/03/29 08:54:19;;;;;;;11.13;3.60;;;9.20;99.90;;;8.24;62.97;101229.19;4983755;28;20042;-79
2023/03/29 08:56:58;;;;;;;16.42;3.72;;;9.30;99.90;;;8.28;62.36;101236.06;4945812;28;20739;-79
2023/03/29 08:59:36;;;;;;;14.73;3.42;;;9.30;99.90;;;8.28;62.78;101237.84;4955178;28;20154;-80
2023/03/29 09:02:16;;;;;;;18.67;3.58;;;9.40;99.90;;;8.33;62.35;101230.69;4999500;28;20025;-80
2023/03/29 09:04:47;;;;;;;12.02;3.92;;;9.40;99.90;;;8.43;62.47;101236.56;4976874;28;20042;-79
2023/03/29 09:07:24;;;;;;;11.40;3.60;;;9.50;99.90;;;8.50;62.27;101227.59;4995880;28;20040;-80
2023/03/29 09:09:50;;;;;;;12.25;3.80;;;9.60;99.90;;;8.72;62.03;101223.41;4972879;28;20029;-79
2023/03/29 09:12:50;;;;;;;12.73;4.43;;;9.80;99.90;;;8.92;61.20;101225.44;4943828;28;20094;-80
2023/03/29 09:15:37;;;;;;;17.00;3.95;;;10.10;99.90;;;9.45;60.88;101235.06;4998104;28;20041;-80
2023/03/29 09:18:34;;;;;;;15.73;4.03;;;10.40;99.90;;;9.83;59.57;101238.16;5005497;28;20030;-80
2023/03/29 09:21:23;;;;;;;;;;;10.60;99.90;;;10.02;58.72;101235.72;4992437;28;20064;-80
2023/03/29 09:24:27;;;;;;;11.80;3.75;;;11.00;99.90;;;10.10;58.33;101235.44;4983440;28;19936;-81
2023/03/29 09:27:26;;;;;;;13.23;3.83;;;11.10;99.90;;;10.26;58.17;101228.72;5030142;28;20067;-81
2023/03/29 09:30:32;;;;;;;14.00;3.78;;;11.20;99.90;;;10.29;57.63;101230.38;4978767;28;20608;-80
2023/03/29 09:33:11;;;;;;;12.18;3.78;;;11.30;99.90;;;10.49;57.82;101222.59;5007666;28;20114;-79
2023/03/29 09:35:52;;;;;;;15.20;4.45;;;11.40;99.90;;;10.56;58.30;101225.84;4973607;28;20109;-80
2023/03/29 09:38:21;;;;;;;13.18;4.57;;;11.50;99.90;;;10.64;57.54;101229.91;4997208;28;20084;-80
2023/03/29 09:41:40;;;;;;;12.65;4.60;;;11.50;99.90;;;10.41;57.04;101222.03;4998339;28;20033;-80
2023/03/29 09:44:33;;;;;;;13.50;4.90;;;11.50;99.90;;;10.62;57.45;101213.31;4991373;22;20523;-80
2023/03/29 09:47:28;;;;;;;16.38;5.68;;;11.60;99.90;;;10.57;58.05;101214.41;5034979;28;20117;-80
2023/03/29 09:50:16;;;;;;;12.95;5.25;;;11.60;99.90;;;10.48;57.77;101205.09;4990639;28;20029;-80
2023/03/29 09:52:43;;;;;;;12.55;5.20;;;11.60;99.90;;;10.51;57.55;101198.84;5013662;28;20102;-81
2023/03/29 09:55:14;;;;;;;15.43;6.25;;;11.50;99.90;;;10.39;57.41;101197.56;4968047;28;20398;-80
2023/03/29 09:57:48;;;;;;;15.38;5.65;;;11.60;99.90;;;10.65;57.68;101200.03;4967626;28;20038;-81
2023/03/29 10:00:18;;;;;;;17.30;6.47;;;11.60;99.90;;;10.66;57.69;101198.25;4970637;28;20033;-79
2023/03/29 10:03:03;;;;;;;15.57;6.40;;;11.60;99.90;;;10.59;57.82;101191.53;4957740;28;20116;-79
2023/03/29 10:05:53;;;;;;;17.95;6.80;;;11.60;99.90;;;10.61;57.54;101194.94;4981130;28;20050;-77
2023/03/29 10:08:40;;;;;;;16.33;5.95;;;11.80;99.90;;;10.95;57.45;101190.94;4929207;28;20404;-80
2023/03/29 10:11:42;;;;;;;16.13;6.07;;;12.00;99.90;;;11.23;56.29;101194.19;4943815;28;20042;-80
2023/03/29 10:14:20;;;;;;;14.30;6.57;;;12.20;99.90;;;11.36;56.55;101193.66;4982777;28;20150;-80
2023/03/29 10:16:55;;;;;;;18.85;6.28;;;12.20;99.90;;;11.24;55.61;101190.63;4988642;28;20050;-80
2023/03/29 10:19:35;;;;;;;14.33;6.70;;;12.30;99.90;;;11.41;55.72;101196.97;4969055;28;20042;-80
2023/03/29 10:25:11;;;;;;;15.40;5.68;;;12.50;99.90;;;11.59;54.80;101201.44;4967565;23;20055;-78
2023/03/29 10:27:43;;;;;;;16.33;6.03;;;12.50;99.90;;;11.43;55.08;101193.34;4939252;28;20320;-78
2023/03/29 10:30:30;;;;;;;14.45;5.13;;;12.50;99.90;;;11.37;55.29;101185.69;4992183;28;20107;-80
2023/03/29 10:32:58;;;;;;;12.27;5.10;;;12.50;99.90;;;11.54;55.72;101184.13;4978489;28;20102;-80
2023/03/29 10:35:50;;;;;;;14.82;5.20;;;12.50;99.90;;;11.56;54.71;101192.81;4974322;28;20227;-80
2023/03/29 10:38:27;;;;;;;10.80;5.28;;;12.60;99.90;;;11.68;55.00;101185.22;4984737;28;20041;-80
2023/03/29 10:41:01;;;;;;;11.30;5.05;;;12.60;99.90;;;11.63;54.57;101184.56;4956520;28;20418;-80
2023/03/29 10:44:05;;;;;;;13.75;5.20;;;12.70;99.90;;;11.48;55.09;101191.34;4988034;28;20100;-80
2023/03/29 10:46:46;;;;;;;10.93;4.72;;;12.50;99.90;;;11.26;54.04;101182.66;4981131;28;20045;-80
2023/03/29 10:49:20;;;;;;;14.40;5.30;;;12.40;99.90;;;11.30;54.97;101184.22;4996730;28;20061;-80